Time;durP1;ratioP1;P1;durP2;ratioP2;P2;SDS_P1;SDS_P2;PMS_P1;PMS_P2;Temp;Humidity;BMP_temperature;BMP_pressure;BME280_temperature;BME280_humidity;BME280_pressure;Samples;Min_cycle;Max_cycle;Signal;HPM_P1;HPM_P2
2023/06/17 00:00:16;;;;;;;8.60;6.93;;;;;;;;;;10336772;28;22684;-74
2023/06/17 00:05:17;;;;;;;10.50;7.18;;;;;;;;;;10338454;28;20940;-75
2023/06/17 00:10:19;;;;;;;15.07;10.15;;;;;;;;;;10331023;28;20219;-74
2023/06/17 00:15:20;;;;;;;16.30;10.40;;;;;;;;;;10342181;28;20215;-74
2023/06/17 00:20:23;;;;;;;11.30;9.05;;;;;;;;;;10343343;28;20227;-74
2023/06/17 00:25:24;;;;;;;7.70;7.10;;;;;;;;;;10337984;28;20192;-73
2023/06/17 00:30:25;;;;;;;7.85;5.88;;;;;;;;;;10332966;28;20228;-74
2023/06/17 00:35:26;;;;;;;8.90;6.93;;;;;;;;;;10332080;28;20265;-74
2023/06/17 00:40:27;;;;;;;11.98;6.75;;;;;;;;;;10337399;28;20277;-74
2023/06/17 00:45:28;;;;;;;6.97;6.25;;;;;;;;;;10342562;28;20235;-73
2023/06/17 00:50:29;;;;;;;14.10;7.22;;;;;;;;;;10326657;28;20681;-74
2023/06/17 00:55:32;;;;;;;7.30;6.57;;;;;;;;;;10309417;28;20207;-74
2023/06/17 01:00:33;;;;;;;7.15;6.50;;;;;;;;;;10335385;28;20219;-72
2023/06/17 01:05:38;;;;;;;9.38;6.40;;;;;;;;;;10320940;28;20212;-72
2023/06/17 01:10:47;;;;;;;13.00;7.55;;;;;;;;;;10329586;28;20230;-72
2023/06/17 01:15:48;;;;;;;8.88;6.75;;;;;;;;;;10326719;28;20299;-74
2023/06/17 01:20:54;;;;;;;9.65;6.65;;;;;;;;;;10335449;28;20224;-74
2023/06/17 01:25:58;;;;;;;7.35;6.65;;;;;;;;;;10341396;28;20255;-75
2023/06/17 01:31:00;;;;;;;8.02;6.65;;;;;;;;;;10357324;28;20235;-74
2023/06/17 01:36:12;;;;;;;6.40;5.90;;;;;;;;;;10355494;28;21260;-77
2023/06/17 01:41:25;;;;;;;8.77;6.20;;;;;;;;;;10338732;28;20219;-73
2023/06/17 01:46:26;;;;;;;8.55;6.80;;;;;;;;;;10334736;28;20212;-73
2023/06/17 01:51:27;;;;;;;11.55;6.72;;;;;;;;;;10339086;28;20735;-74
2023/06/17 01:56:28;;;;;;;6.97;6.38;;;;;;;;;;10321448;28;20250;-73
2023/06/17 02:01:30;;;;;;;8.65;7.10;;;;;;;;;;10329793;28;20230;-73
2023/06/17 02:06:31;;;;;;;8.13;7.32;;;;;;;;;;10335487;28;20230;-75
2023/06/17 02:11:32;;;;;;;7.63;6.85;;;;;;;;;;10330314;28;20220;-75
2023/06/17 02:16:33;;;;;;;7.93;7.15;;;;;;;;;;10332848;28;20234;-75
2023/06/17 02:21:34;;;;;;;8.73;7.45;;;;;;;;;;10356783;28;20250;-75
2023/06/17 02:26:35;;;;;;;10.85;7.55;;;;;;;;;;10339399;28;20251;-74
2023/06/17 02:31:37;;;;;;;10.60;7.15;;;;;;;;;;10349091;28;20258;-75
2023/06/17 02:36:39;;;;;;;11.90;8.52;;;;;;;;;;10343080;28;20216;-75
2023/06/17 02:41:41;;;;;;;7.82;7.13;;;;;;;;;;10340968;28;20234;-75
2023/06/17 02:46:42;;;;;;;10.18;8.05;;;;;;;;;;10343282;28;20224;-75
2023/06/17 02:51:44;;;;;;;8.15;7.35;;;;;;;;;;10330886;28;20216;-75
2023/06/17 02:56:45;;;;;;;8.20;7.40;;;;;;;;;;10343597;28;20737;-74
2023/06/17 03:01:46;;;;;;;8.40;6.95;;;;;;;;;;10330620;28;21397;-75
2023/06/17 03:06:50;;;;;;;7.95;7.15;;;;;;;;;;10332393;28;20215;-74
2023/06/17 03:11:52;;;;;;;10.90;7.68;;;;;;;;;;10327304;28;20238;-75
2023/06/17 03:16:53;;;;;;;9.88;8.73;;;;;;;;;;10333916;28;20223;-74
2023/06/17 03:21:55;;;;;;;10.32;8.30;;;;;;;;;;10337140;28;20754;-74
2023/06/17 03:26:59;;;;;;;10.27;8.43;;;;;;;;;;10358100;28;20282;-75
2023/06/17 03:32:00;;;;;;;11.45;10.00;;;;;;;;;;10342111;28;20227;-74
2023/06/17 03:37:05;;;;;;;16.25;9.35;;;;;;;;;;10345514;28;20220;-74
2023/06/17 03:42:06;;;;;;;15.88;10.88;;;;;;;;;;10341875;28;20220;-74
2023/06/17 03:47:07;;;;;;;18.15;10.88;;;;;;;;;;10338963;28;20212;-74
2023/06/17 03:52:09;;;;;;;17.23;12.07;;;;;;;;;;10336277;28;20753;-74
2023/06/17 03:57:11;;;;;;;17.00;12.38;;;;;;;;;;10325857;28;20709;-74
2023/06/17 04:02:12;;;;;;;27.85;13.10;;;;;;;;;;10331168;28;20239;-74
2023/06/17 04:07:16;;;;;;;20.00;12.52;;;;;;;;;;10332302;28;20617;-74
2023/06/17 04:12:17;;;;;;;17.83;13.05;;;;;;;;;;10321667;28;20307;-74
2023/06/17 04:17:19;;;;;;;21.90;13.70;;;;;;;;;;10334279;28;20283;-74
2023/06/17 04:22:20;;;;;;;20.65;13.18;;;;;;;;;;10337391;28;20220;-75
2023/06/17 04:27:21;;;;;;;19.98;13.10;;;;;;;;;;10333107;28;20211;-75
2023/06/17 04:32:25;;;;;;;16.25;12.60;;;;;;;;;;10325135;28;20612;-74
2023/06/17 04:37:27;;;;;;;20.35;12.75;;;;;;;;;;10327302;28;20263;-74
2023/06/17 04:42:33;;;;;;;18.10;12.50;;;;;;;;;;10334383;28;20374;-74
2023/06/17 04:47:35;;;;;;;23.55;13.45;;;;;;;;;;10329703;28;20248;-74
2023/06/17 04:52:37;;;;;;;19.20;13.05;;;;;;;;;;10348771;28;20224;-74
2023/06/17 04:57:39;;;;;;;19.30;13.38;;;;;;;;;;10320257;28;20837;-75
2023/06/17 05:02:40;;;;;;;20.02;13.38;;;;;;;;;;10322611;28;20575;-74
2023/06/17 05:07:42;;;;;;;20.60;13.57;;;;;;;;;;10337992;28;20230;-75
2023/06/17 05:12:44;;;;;;;21.67;13.00;;;;;;;;;;10345234;28;20235;-74
2023/06/17 05:17:45;;;;;;;20.83;13.45;;;;;;;;;;10336092;28;20306;-75
2023/06/17 05:22:46;;;;;;;20.45;13.27;;;;;;;;;;10324309;28;20224;-74
2023/06/17 05:27:48;;;;;;;16.15;11.63;;;;;;;;;;10352096;28;20258;-75
2023/06/17 05:32:49;;;;;;;19.70;12.60;;;;;;;;;;10325741;28;20224;-75
2023/06/17 05:37:51;;;;;;;15.85;10.90;;;;;;;;;;10329298;28;20298;-74
2023/06/17 05:42:52;;;;;;;16.42;11.18;;;;;;;;;;10328677;28;20255;-75
2023/06/17 05:47:55;;;;;;;18.80;11.27;;;;;;;;;;10322152;28;20498;-75
2023/06/17 05:52:57;;;;;;;18.10;11.30;;;;;;;;;;10338130;28;20623;-74
2023/06/17 05:57:58;;;;;;;17.58;11.10;;;;;;;;;;10338274;28;20327;-73
2023/06/17 06:03:00;;;;;;;17.88;11.05;;;;;;;;;;10336428;28;20224;-75
2023/06/17 06:08:02;;;;;;;17.52;11.10;;;;;;;;;;10335646;28;20239;-75
2023/06/17 06:13:03;;;;;;;14.93;11.75;;;;;;;;;;10332952;28;20246;-76
2023/06/17 06:18:05;;;;;;;13.95;10.93;;;;;;;;;;10339764;28;20276;-75
2023/06/17 06:23:09;;;;;;;15.07;10.85;;;;;;;;;;10330370;28;20731;-75
2023/06/17 06:28:10;;;;;;;21.77;11.88;;;;;;;;;;10333351;28;20215;-74
2023/06/17 06:33:11;;;;;;;15.77;11.45;;;;;;;;;;10307961;28;20235;-75
2023/06/17 06:38:12;;;;;;;16.27;11.95;;;;;;;;;;10319814;28;20251;-75
2023/06/17 06:43:14;;;;;;;18.48;11.73;;;;;;;;;;10314245;28;20224;-75
2023/06/17 06:48:35;;;;;;;21.85;12.70;;;;;;;;;;10327324;28;20223;-75
2023/06/17 06:53:36;;;;;;;13.52;11.60;;;;;;;;;;10332392;28;20231;-75
2023/06/17 06:58:38;;;;;;;16.70;11.60;;;;;;;;;;10341865;28;20213;-75
2023/06/17 07:03:40;;;;;;;19.52;11.25;;;;;;;;;;10334636;28;20600;-75
2023/06/17 07:08:43;;;;;;;17.00;11.82;;;;;;;;;;10329732;28;20226;-75
2023/06/17 07:13:44;;;;;;;16.35;10.48;;;;;;;;;;10357649;28;20277;-74
2023/06/17 07:18:45;;;;;;;12.15;10.98;;;;;;;;;;10335886;28;20701;-75
2023/06/17 07:23:46;;;;;;;13.00;10.20;;;;;;;;;;10333397;28;20212;-76
2023/06/17 07:28:47;;;;;;;13.50;10.45;;;;;;;;;;10335798;28;20216;-74
2023/06/17 07:33:48;;;;;;;12.88;10.35;;;;;;;;;;10296464;28;20225;-75
2023/06/17 07:38:51;;;;;;;11.27;10.13;;;;;;;;;;10279988;28;20212;-76
2023/06/17 07:43:52;;;;;;;15.05;12.20;;;;;;;;;;10308328;28;20259;-78
2023/06/17 07:48:53;;;;;;;17.08;13.20;;;;;;;;;;10278918;28;20236;-76
2023/06/17 07:53:54;;;;;;;17.42;13.27;;;;;;;;;;10290439;28;20963;-76
2023/06/17 07:58:56;;;;;;;15.38;11.60;;;;;;;;;;10291895;28;20212;-75
2023/06/17 08:03:56;;;;;;;12.07;10.90;;;;;;;;;;10258823;28;20299;-76
2023/06/17 08:08:57;;;;;;;15.20;10.82;;;;;;;;;;10300444;28;20235;-76
2023/06/17 08:13:58;;;;;;;16.00;11.52;;;;;;;;;;10286853;28;20239;-76
2023/06/17 08:18:59;;;;;;;12.07;10.48;;;;;;;;;;10299841;28;20291;-76
2023/06/17 08:24:15;;;;;;;11.35;8.50;;;;;;;;;;10286759;28;20648;-76
2023/06/17 08:29:17;;;;;;;15.13;10.98;;;;;;;;;;10292566;28;20219;-76
2023/06/17 08:34:18;;;;;;;13.82;9.60;;;;;;;;;;10325791;28;20228;-75
2023/06/17 08:39:19;;;;;;;13.63;9.63;;;;;;;;;;10327708;28;20216;-76
2023/06/17 08:44:21;;;;;;;11.80;9.65;;;;;;;;;;10327493;28;20903;-75
2023/06/17 08:49:23;;;;;;;9.40;8.38;;;;;;;;;;10330293;28;20269;-75
2023/06/17 08:54:24;;;;;;;9.48;8.32;;;;;;;;;;10326225;28;20223;-76
2023/06/17 08:59:25;;;;;;;10.95;9.23;;;;;;;;;;10332458;28;20220;-74
2023/06/17 09:04:27;;;;;;;10.07;8.77;;;;;;;;;;10323202;28;20255;-76
2023/06/17 09:09:28;;;;;;;12.05;9.52;;;;;;;;;;10328683;28;20215;-77
2023/06/17 09:14:29;;;;;;;11.65;9.27;;;;;;;;;;10341553;28;20226;-77
2023/06/17 09:19:31;;;;;;;19.08;9.77;;;;;;;;;;10336520;28;20222;-74
2023/06/17 09:24:32;;;;;;;10.35;8.73;;;;;;;;;;10327308;28;20219;-75
2023/06/17 09:29:33;;;;;;;14.77;7.35;;;;;;;;;;10341131;28;21021;-76
2023/06/17 09:34:34;;;;;;;10.80;8.15;;;;;;;;;;10337098;28;20220;-74
2023/06/17 09:39:35;;;;;;;9.43;8.30;;;;;;;;;;10346179;28;20224;-75
2023/06/17 09:44:37;;;;;;;11.20;9.80;;;;;;;;;;10342514;28;20637;-75
2023/06/17 09:49:38;;;;;;;9.13;8.32;;;;;;;;;;10345043;28;20220;-75
2023/06/17 09:54:41;;;;;;;10.52;7.75;;;;;;;;;;10342753;28;20703;-75
2023/06/17 09:59:43;;;;;;;9.75;8.40;;;;;;;;;;10340903;28;20223;-75
2023/06/17 10:04:45;;;;;;;8.15;7.45;;;;;;;;;;10343714;28;20212;-75
2023/06/17 10:09:46;;;;;;;8.52;6.20;;;;;;;;;;10345199;28;20220;-75
2023/06/17 10:14:48;;;;;;;6.63;6.13;;;;;;;;;;10345014;28;20220;-75
2023/06/17 10:19:49;;;;;;;9.85;7.28;;;;;;;;;;10349030;28;20226;-75
2023/06/17 10:24:50;;;;;;;7.35;6.68;;;;;;;;;;10328350;28;20239;-75
2023/06/17 10:29:51;;;;;;;6.63;6.03;;;;;;;;;;10355992;28;20234;-75
2023/06/17 10:35:09;;;;;;;6.13;5.47;;;;;;;;;;10354453;28;20228;-76
2023/06/17 10:40:26;;;;;;;6.45;5.20;;;;;;;;;;10348007;28;20216;-75
2023/06/17 10:45:47;;;;;;;5.22;4.93;;;;;;;;;;10345609;28;20744;-76
2023/06/17 10:50:52;;;;;;;7.00;6.25;;;;;;;;;;10367986;28;20219;-76
2023/06/17 10:55:53;;;;;;;5.80;5.50;;;;;;;;;;10349031;28;20246;-76
2023/06/17 11:00:57;;;;;;;6.55;6.00;;;;;;;;;;10349020;28;20644;-76
2023/06/17 11:05:59;;;;;;;8.50;4.60;;;;;;;;;;10346849;28;20207;-76
2023/06/17 11:11:10;;;;;;;5.47;4.93;;;;;;;;;;10347130;28;20943;-77
2023/06/17 11:16:13;;;;;;;4.60;4.40;;;;;;;;;;10348165;28;20228;-76
2023/06/17 11:21:15;;;;;;;4.90;4.50;;;;;;;;;;10345781;28;20212;-76
2023/06/17 11:26:16;;;;;;;11.50;4.57;;;;;;;;;;10358190;28;20841;-73
2023/06/17 11:31:18;;;;;;;3.28;3.10;;;;;;;;;;10348782;28;20234;-75
2023/06/17 11:36:20;;;;;;;3.85;3.65;;;;;;;;;;10350022;28;20310;-74
2023/06/17 11:41:22;;;;;;;3.92;3.67;;;;;;;;;;10349082;28;20258;-74
2023/06/17 11:46:24;;;;;;;3.92;3.83;;;;;;;;;;10329968;28;20220;-75
2023/06/17 11:51:25;;;;;;;3.05;2.95;;;;;;;;;;10365746;28;20216;-75
2023/06/17 11:56:26;;;;;;;4.20;3.92;;;;;;;;;;10336664;28;20243;-75
2023/06/17 12:01:27;;;;;;;4.10;3.90;;;;;;;;;;10347263;28;20877;-75
2023/06/17 12:06:29;;;;;;;3.75;3.55;;;;;;;;;;10343094;28;20212;-75
2023/06/17 12:11:35;;;;;;;3.90;3.45;;;;;;;;;;10337126;28;20230;-75
2023/06/17 12:16:38;;;;;;;3.38;3.17;;;;;;;;;;10344009;28;20231;-74
2023/06/17 12:21:39;;;;;;;3.97;3.70;;;;;;;;;;10344905;28;20274;-73
2023/06/17 12:26:40;;;;;;;3.60;3.50;;;;;;;;;;10354182;28;20285;-75
2023/06/17 12:31:42;;;;;;;3.38;3.28;;;;;;;;;;10328654;28;20231;-76
2023/06/17 12:36:44;;;;;;;3.78;3.60;;;;;;;;;;10339117;28;20235;-75
2023/06/17 12:41:45;;;;;;;2.95;2.95;;;;;;;;;;10342893;28;20212;-75
2023/06/17 12:46:46;;;;;;;4.38;3.97;;;;;;;;;;10338757;28;20553;-75
2023/06/17 12:51:47;;;;;;;3.55;3.35;;;;;;;;;;10357888;28;20224;-75
2023/06/17 12:56:48;;;;;;;4.10;3.72;;;;;;;;;;10346143;28;20227;-75
2023/06/17 13:01:49;;;;;;;3.15;3.08;;;;;;;;;;10334939;28;20208;-74
2023/06/17 13:06:50;;;;;;;3.47;3.38;;;;;;;;;;10344500;28;20236;-75
2023/06/17 13:11:52;;;;;;;3.83;3.72;;;;;;;;;;10341524;28;20939;-75
2023/06/17 13:16:53;;;;;;;3.25;3.15;;;;;;;;;;10342202;28;20222;-75
2023/06/17 13:21:54;;;;;;;3.35;3.15;;;;;;;;;;10349254;28;20715;-73
2023/06/17 13:26:55;;;;;;;3.15;2.80;;;;;;;;;;10350375;28;20302;-75
2023/06/17 13:31:56;;;;;;;3.50;3.30;;;;;;;;;;10352574;28;20263;-75
2023/06/17 13:36:57;;;;;;;2.85;2.65;;;;;;;;;;10349598;28;20939;-75
2023/06/17 13:41:58;;;;;;;3.05;2.90;;;;;;;;;;10349472;28;20760;-74
2023/06/17 13:46:59;;;;;;;3.20;3.10;;;;;;;;;;10347375;28;20351;-73
2023/06/17 13:52:02;;;;;;;3.00;2.90;;;;;;;;;;10350339;28;20215;-74
2023/06/17 13:57:03;;;;;;;2.92;2.92;;;;;;;;;;10342476;28;20740;-74
2023/06/17 14:02:04;;;;;;;2.70;2.60;;;;;;;;;;10342402;28;20243;-74
2023/06/17 14:07:05;;;;;;;4.22;2.80;;;;;;;;;;10336320;28;20319;-78
2023/06/17 14:12:07;;;;;;;2.10;2.10;;;;;;;;;;10348200;28;20921;-78
2023/06/17 14:17:09;;;;;;;2.92;2.83;;;;;;;;;;10342299;28;20220;-77
2023/06/17 14:22:10;;;;;;;2.25;2.25;;;;;;;;;;10353731;28;20263;-77
2023/06/17 14:27:14;;;;;;;2.53;2.42;;;;;;;;;;10330236;28;20714;-77
2023/06/17 14:32:15;;;;;;;2.70;2.60;;;;;;;;;;10324845;28;20600;-77
2023/06/17 14:37:16;;;;;;;3.05;2.95;;;;;;;;;;10293216;28;20279;-76
2023/06/17 14:42:17;;;;;;;3.17;3.08;;;;;;;;;;10288910;28;20266;-76
2023/06/17 14:47:18;;;;;;;2.92;2.83;;;;;;;;;;10299508;28;20220;-76
2023/06/17 14:52:19;;;;;;;3.40;3.20;;;;;;;;;;10281554;28;20694;-77
2023/06/17 14:57:21;;;;;;;2.90;2.80;;;;;;;;;;10301026;28;20229;-77
2023/06/17 15:02:25;;;;;;;3.60;3.40;;;;;;;;;;10308471;28;20272;-76
2023/06/17 15:07:25;;;;;;;2.97;2.88;;;;;;;;;;10296072;28;20216;-76
2023/06/17 15:12:26;;;;;;;3.03;2.80;;;;;;;;;;10284105;28;20283;-78
2023/06/17 15:17:27;;;;;;;3.58;3.38;;;;;;;;;;10302068;28;20209;-75
2023/06/17 15:22:28;;;;;;;3.15;3.00;;;;;;;;;;10299596;28;20221;-77
2023/06/17 15:27:29;;;;;;;3.33;3.13;;;;;;;;;;10260751;28;20220;-75
2023/06/17 15:32:30;;;;;;;3.30;2.88;;;;;;;;;;10315458;28;20808;-76
2023/06/17 15:37:31;;;;;;;3.63;3.30;;;;;;;;;;10335598;28;20330;-76
2023/06/17 15:42:32;;;;;;;3.40;3.20;;;;;;;;;;10335544;28;20222;-77
2023/06/17 15:47:33;;;;;;;3.22;3.15;;;;;;;;;;10334608;28;21185;-76
2023/06/17 15:53:03;;;;;;;;;;;;;;;;;;;;;
2023/06/17 15:58:09;;;;;;;3.50;3.30;;;;;;;;;;10386530;28;20226;-77
2023/06/17 16:03:10;;;;;;;2.90;2.80;;;;;;;;;;10358212;28;20758;-77
2023/06/17 16:08:48;;;;;;;4.15;3.95;;;;;;;;;;10385007;28;20227;-76
2023/06/17 16:13:49;;;;;;;4.63;4.38;;;;;;;;;;10376645;28;20215;-77
2023/06/17 16:18:59;;;;;;;7.18;3.85;;;;;;;;;;10370648;28;20242;-76
2023/06/17 16:24:00;;;;;;;4.07;3.88;;;;;;;;;;10374894;28;20247;-75
2023/06/17 16:29:01;;;;;;;4.10;3.85;;;;;;;;;;10381067;28;20219;-76
2023/06/17 16:34:05;;;;;;;4.80;4.60;;;;;;;;;;10383835;28;20245;-77
2023/06/17 16:39:08;;;;;;;5.53;5.05;;;;;;;;;;10385251;28;20302;-76
2023/06/17 16:44:09;;;;;;;6.57;4.68;;;;;;;;;;10388005;28;20335;-77
2023/06/17 16:49:10;;;;;;;5.53;4.80;;;;;;;;;;10386744;28;20647;-79
2023/06/17 16:54:11;;;;;;;12.75;5.25;;;;;;;;;;10421583;28;20582;-77
2023/06/17 16:59:13;;;;;;;5.45;4.90;;;;;;;;;;10395122;28;20221;-78
2023/06/17 17:04:14;;;;;;;4.78;4.47;;;;;;;;;;10354850;28;20221;-78
2023/06/17 17:09:15;;;;;;;4.25;4.05;;;;;;;;;;10393048;28;20223;-77
2023/06/17 17:14:16;;;;;;;4.88;4.47;;;;;;;;;;10361505;28;20219;-79
2023/06/17 17:19:17;;;;;;;5.03;4.78;;;;;;;;;;10388810;28;20587;-80
2023/06/17 17:24:18;;;;;;;6.53;5.35;;;;;;;;;;10388022;28;20304;-77
2023/06/17 17:29:19;;;;;;;7.75;5.60;;;;;;;;;;10387394;28;20219;-79
2023/06/17 17:34:20;;;;;;;5.40;4.93;;;;;;;;;;10385599;28;20215;-79
2023/06/17 17:39:21;;;;;;;5.65;5.32;;;;;;;;;;10390299;28;20246;-79
2023/06/17 17:44:22;;;;;;;5.93;5.50;;;;;;;;;;10387738;28;20676;-78
2023/06/17 17:49:23;;;;;;;6.75;6.15;;;;;;;;;;10389278;28;20293;-76
2023/06/17 17:54:24;;;;;;;6.70;6.10;;;;;;;;;;10384746;28;20315;-78
2023/06/17 17:59:25;;;;;;;6.65;6.05;;;;;;;;;;10365882;28;20219;-77
2023/06/17 18:04:26;;;;;;;6.90;6.22;;;;;;;;;;10343144;28;20241;-79
2023/06/17 18:09:28;;;;;;;8.68;7.72;;;;;;;;;;10387328;28;20348;-78
2023/06/17 18:14:29;;;;;;;7.00;6.47;;;;;;;;;;10384903;28;20211;-79
2023/06/17 18:19:30;;;;;;;8.45;6.97;;;;;;;;;;10366655;28;21129;-80
2023/06/17 18:24:31;;;;;;;11.05;9.77;;;;;;;;;;10389324;28;20220;-79
2023/06/17 18:29:32;;;;;;;10.27;8.40;;;;;;;;;;10401799;28;21146;-81
2023/06/17 18:34:33;;;;;;;6.93;6.30;;;;;;;;;;10369372;28;20222;-80
2023/06/17 18:39:34;;;;;;;7.03;6.38;;;;;;;;;;10391934;28;20261;-82
2023/06/17 18:44:35;;;;;;;8.98;7.90;;;;;;;;;;10418426;28;20215;-84
2023/06/17 18:49:36;;;;;;;7.47;6.82;;;;;;;;;;10386342;28;20656;-79
2023/06/17 18:54:37;;;;;;;11.95;8.93;;;;;;;;;;10390947;28;20685;-80
2023/06/17 18:59:38;;;;;;;7.57;6.88;;;;;;;;;;10389631;28;20381;-81
2023/06/17 19:04:39;;;;;;;7.03;6.53;;;;;;;;;;10369507;28;20230;-76
2023/06/17 19:09:40;;;;;;;7.85;6.43;;;;;;;;;;10384134;28;20223;-80
2023/06/17 19:14:41;;;;;;;6.60;6.05;;;;;;;;;;10379814;28;20250;-77
2023/06/17 19:19:42;;;;;;;7.43;6.72;;;;;;;;;;10382999;28;20293;-77
2023/06/17 19:24:43;;;;;;;8.52;7.78;;;;;;;;;;10388817;28;20222;-76
2023/06/17 19:29:44;;;;;;;8.52;7.82;;;;;;;;;;10384192;28;20233;-77
2023/06/17 19:34:45;;;;;;;8.50;7.72;;;;;;;;;;10383776;28;21152;-78
2023/06/17 19:39:46;;;;;;;8.48;7.60;;;;;;;;;;10384613;28;20231;-80
2023/06/17 19:44:55;;;;;;;7.63;6.97;;;;;;;;;;10383373;28;20374;-77
2023/06/17 19:49:56;;;;;;;7.55;6.95;;;;;;;;;;10382445;28;20346;-79
2023/06/17 19:54:57;;;;;;;7.88;7.07;;;;;;;;;;10381070;28;20211;-77
2023/06/17 19:59:58;;;;;;;9.02;8.13;;;;;;;;;;10385114;28;20242;-76
2023/06/17 20:04:59;;;;;;;7.78;6.97;;;;;;;;;;10380727;28;20276;-78
2023/06/17 20:10:00;;;;;;;9.40;8.50;;;;;;;;;;10386238;28;20365;-78
2023/06/17 20:15:01;;;;;;;8.73;7.93;;;;;;;;;;10387902;28;21049;-78
2023/06/17 20:20:03;;;;;;;11.63;10.30;;;;;;;;;;10381978;28;20219;-78
2023/06/17 20:25:04;;;;;;;9.27;8.30;;;;;;;;;;10382587;28;20261;-76
2023/06/17 20:30:05;;;;;;;8.80;7.90;;;;;;;;;;10378063;28;20218;-77
2023/06/17 20:35:06;;;;;;;20.17;10.50;;;;;;;;;;10380376;28;20234;-77
2023/06/17 20:40:08;;;;;;;12.65;8.27;;;;;;;;;;10382552;28;20218;-78
2023/06/17 20:45:09;;;;;;;11.23;8.35;;;;;;;;;;10393461;28;20211;-78
2023/06/17 20:50:11;;;;;;;9.95;8.20;;;;;;;;;;10391769;28;20223;-79
2023/06/17 20:55:12;;;;;;;7.57;6.97;;;;;;;;;;10385668;28;20800;-80
2023/06/17 21:00:14;;;;;;;11.38;6.05;;;;;;;;;;10385870;28;20196;-78
2023/06/17 21:05:15;;;;;;;7.53;5.95;;;;;;;;;;10384911;28;20219;-78
2023/06/17 21:10:16;;;;;;;6.60;5.60;;;;;;;;;;10387515;28;20298;-78
2023/06/17 21:15:18;;;;;;;7.72;7.03;;;;;;;;;;10382375;28;20208;-78
2023/06/17 21:20:19;;;;;;;8.30;7.55;;;;;;;;;;10394892;28;20303;-77
2023/06/17 21:25:20;;;;;;;8.65;7.38;;;;;;;;;;10374500;28;20300;-77
2023/06/17 21:30:21;;;;;;;7.93;7.32;;;;;;;;;;10391596;28;20701;-77
2023/06/17 21:35:22;;;;;;;14.80;8.52;;;;;;;;;;10396045;28;20260;-78
2023/06/17 21:40:23;;;;;;;8.63;7.63;;;;;;;;;;10394764;28;20211;-78
2023/06/17 21:45:25;;;;;;;7.97;7.15;;;;;;;;;;10398496;28;20202;-79
2023/06/17 21:50:26;;;;;;;8.05;7.35;;;;;;;;;;10399982;28;20298;-79
2023/06/17 21:55:27;;;;;;;8.77;8.05;;;;;;;;;;10403785;28;20226;-79
2023/06/17 22:00:29;;;;;;;10.55;9.45;;;;;;;;;;10402357;28;20223;-79
2023/06/17 22:05:30;;;;;;;10.93;8.75;;;;;;;;;;10392133;28;20310;-79
2023/06/17 22:10:31;;;;;;;9.18;8.27;;;;;;;;;;10385760;28;20242;-79
2023/06/17 22:15:32;;;;;;;10.18;9.18;;;;;;;;;;10391891;28;20610;-79
2023/06/17 22:20:33;;;;;;;10.70;9.18;;;;;;;;;;10391260;28;20208;-77
2023/06/17 22:25:34;;;;;;;12.70;8.50;;;;;;;;;;10390071;28;20292;-78
2023/06/17 22:30:36;;;;;;;9.48;8.43;;;;;;;;;;10398699;28;20648;-79
2023/06/17 22:35:37;;;;;;;10.10;8.02;;;;;;;;;;10401607;28;20276;-78
2023/06/17 22:40:38;;;;;;;8.73;7.93;;;;;;;;;;10407911;28;20393;-77
2023/06/17 22:45:39;;;;;;;9.13;6.82;;;;;;;;;;10403640;28;20681;-82
2023/06/17 22:50:40;;;;;;;9.45;8.55;;;;;;;;;;10414633;28;20246;-78
2023/06/17 22:55:41;;;;;;;7.90;7.10;;;;;;;;;;10378095;28;20207;-79
2023/06/17 23:00:42;;;;;;;10.50;8.07;;;;;;;;;;10397291;28;20776;-76
2023/06/17 23:05:43;;;;;;;7.68;6.93;;;;;;;;;;10390830;28;22134;-76
2023/06/17 23:10:44;;;;;;;12.23;8.00;;;;;;;;;;10391643;28;20214;-77
2023/06/17 23:15:45;;;;;;;8.50;7.28;;;;;;;;;;10395094;28;20250;-77
2023/06/17 23:20:46;;;;;;;9.93;7.70;;;;;;;;;;10398342;28;20215;-77
2023/06/17 23:25:49;;;;;;;10.30;7.03;;;;;;;;;;10393474;28;20202;-78
2023/06/17 23:30:51;;;;;;;9.13;6.65;;;;;;;;;;10395339;28;20241;-76
2023/06/17 23:35:52;;;;;;;8.13;7.32;;;;;;;;;;10395399;28;20704;-76
2023/06/17 23:40:53;;;;;;;13.77;7.25;;;;;;;;;;10395808;28;20226;-76
2023/06/17 23:45:57;;;;;;;8.93;7.05;;;;;;;;;;10390810;28;20266;-76
2023/06/17 23:50:58;;;;;;;8.30;6.88;;;;;;;;;;10393634;28;20219;-76
2023/06/17 23:55:59;;;;;;;8.43;7.45;;;;;;;;;;10368383;28;20331;-76
